Details From FSIA - Seychelles Intl
To FIMP - Sir Seewoosagur Ramgoolam Intl
Flight Number -
Tags decoded
Created
Modified
Stats Distance 955 nm / 1,769 km
Max Altitude 0 ft / 0 m
Waypoints 7
Social Downloads 1
Likes 0
Share

Download

Looking for another format? Having issues loading an existing format? Contact us
Advertisement - Login to hide

Notes

Requested: FSIA NESID1B NESID T129 RERUS UM313 ALRAN UR400F EGLET UR400F UTIVA GABKI1 FIMP Unmatched points: NESID1B UM313 UR400F UR400F GABKI1

Route

FSIA NESID T129 RERUS ALRAN EGLET UTIVA FIMP

ID Type Via Altitude (ft/m) Position (lat/lon) Dist (leg/tot) Name
O FSIA APT - 0 / 0 -4.67437 / 55.52180 - / 0 nm Seychelles Intl
NESID FIX - 0 / 0 -5.16621 / 55.62430 30 / 30 nm
RERUS FIX T129 (AWY-HI) 0 / 0 -7.63254 / 56.09400 150 / 180 nm
ALRAN FIX - 0 / 0 -10.00000 / 56.37250 143 / 324 nm
EGLET FIX - 0 / 0 -15.00000 / 56.97580 302 / 626 nm
UTIVA FIX - 0 / 0 -17.93830 / 57.34310 177 / 804 nm
O FIMP APT - 0 / 0 -20.43020 / 57.68360 150 / 955 nm Sir Seewoosagur Ramgoolam Intl

Altitude Profile

Advertisement - Login to hide

Weather


0- 5 10 15 20 25 30 35+ Temperature / °C

Clouds and Precipitation
Forecast for 2021-06-23 12:00 UTC. Updated 5 hours ago

Ground ~20,000 ft ~40,000 ft Winds

FSIA

Details ICAO FSIA (SEZ)
Name Seychelles Intl
Region Seychelles
Timezone Unknown
Stats Elevation 8 ft / 2 m (AMSL)
Location -4.674370° 55.521800°
Runways 1
Magnetic Variation 4.939° W

METAR

FSIA 231400Z 14011KT 9999 SCT019 27/23 Q1012 NOSIG

Decode

TAF

TAF FSIA 231101Z 2312/2412 13012KT 9999 SCT020= TAF GMTA 231100Z 2312/2418 35010KT CAVOK BECMG 2402/2404 BKN010

Decode

Departure Runways

ID Width Length Bearing (true/mag) Surface Threshold Overrun Markings Lighting
13 151 ft / 46 m 9,809 ft / 2,990 m 125.05° / 129.99° CONCRETE 984 ft / 300 m 302 ft / 92 m PREC-APP EDGE THRESHOLD SALS REIL-OMNI
31 151 ft / 46 m 9,809 ft / 2,990 m 305.05° / 309.99° CONCRETE 984 ft / 300 m 115 ft / 35 m PREC-APP EDGE THRESHOLD SALS REIL-OMNI

FIMP

Details ICAO FIMP (MRU)
Name Sir Seewoosagur Ramgoolam Intl
Region Mauritius
Timezone Indian/Mauritius (UTC+4.0)
Stats Elevation 183 ft / 56 m (AMSL)
Location -20.430200° 57.683600°
Runways 1
Magnetic Variation 18.223° W

METAR

FIMP 231400Z 12010KT 9999 SCT018 22/14 Q1022

Decode

TAF

TAF FIMP 231105Z 2312/2418 12012G25KT 9999 SCT017 PROB30 TEMPO 2320/2403 7000 -SHRA SCT015 BKN050

Decode

Destination Runways

ID Width Length Bearing (true/mag) Surface Threshold Overrun Markings Lighting
14 148 ft / 45 m 11,073 ft / 3,375 m 117.17° / 135.40° ASPHALT 1,086 ft / 331 m 203 ft / 62 m PREC-APP CENTERLINE EDGE THRESHOLD ALSF-I
32 148 ft / 45 m 11,073 ft / 3,375 m 297.17° / 315.39° ASPHALT 0 ft / 0 m 197 ft / 60 m PREC-APP CENTERLINE EDGE THRESHOLD ODALS

Approach Navaids

Runway Type Ident Frequency Range Bearing (true/mag) Slope Elevation
14 MM MM - - 117.22° / 135.44 ° - 186 ft / 57 m (AMSL)
14 DME IPL 109.90 MHz 18 nm / 33 km - - 186 ft / 57 m (AMSL)
14 LOC-ILS IPL 109.90 MHz 18 nm / 33 km 117.12° / 135.34 ° - 183 ft / 56 m (AMSL)
14 GS IPL 109.90 MHz 10 nm / 19 km 117.12° / 135.34 ° 3.50° 183 ft / 56 m (AMSL)
14 OM OM - - 117.22° / 135.44 ° - 186 ft / 57 m (AMSL)

Popular Alternatives